createdAt,value
2022-08-26T00:02:01.673Z,19.90
2022-08-26T00:04:31.415Z,21.43
2022-08-26T00:07:01.832Z,24.00
2022-08-26T00:09:31.115Z,23.50
2022-08-26T00:11:59.885Z,28.10
2022-08-26T00:14:31.213Z,19.43
2022-08-26T00:17:00.542Z,20.20
2022-08-26T00:19:29.689Z,21.40
2022-08-26T00:21:58.761Z,23.73
2022-08-26T00:24:30.629Z,23.60
2022-08-26T00:27:00.012Z,23.57
2022-08-26T00:29:30.559Z,24.57
2022-08-26T00:32:04.131Z,26.77
2022-08-26T00:34:33.362Z,24.93
2022-08-26T00:37:02.555Z,24.73
2022-08-26T00:39:33.602Z,24.63
2022-08-26T00:42:02.671Z,19.90
2022-08-26T00:44:31.541Z,23.53
2022-08-26T00:47:04.384Z,24.00
2022-08-26T00:49:38.975Z,26.03
2022-08-26T00:52:13.162Z,27.30
2022-08-26T00:54:47.088Z,24.03
2022-08-26T00:57:18.787Z,17.27
2022-08-26T00:59:51.370Z,23.17
2022-08-26T01:02:21.459Z,20.33
2022-08-26T01:04:55.507Z,19.10
2022-08-26T01:07:27.637Z,18.30
2022-08-26T01:10:01.660Z,17.53
2022-08-26T01:12:33.185Z,20.83
2022-08-26T01:15:02.588Z,22.17
2022-08-26T01:17:31.558Z,20.03
2022-08-26T01:20:06.431Z,19.57
2022-08-26T01:22:46.080Z,20.67
2022-08-26T01:25:15.914Z,21.90
2022-08-26T01:27:59.019Z,17.00
2022-08-26T01:30:29.023Z,16.77
2022-08-26T01:33:00.001Z,18.40
2022-08-26T01:35:29.570Z,21.40
2022-08-26T01:38:00.738Z,19.67
2022-08-26T01:40:37.092Z,20.33
2022-08-26T01:43:09.373Z,18.73
2022-08-26T01:45:39.133Z,20.77
2022-08-26T01:48:11.713Z,21.97
2022-08-26T01:50:40.817Z,22.97
2022-08-26T01:53:14.251Z,23.77
2022-08-26T01:55:47.658Z,18.60
2022-08-26T01:58:24.251Z,22.03
2022-08-26T02:00:53.572Z,25.17
2022-08-26T02:03:22.662Z,21.97
2022-08-26T02:05:54.930Z,30.53
2022-08-26T02:08:28.156Z,27.83
2022-08-26T02:10:57.212Z,26.47
2022-08-26T02:13:30.186Z,31.07
2022-08-26T02:16:00.893Z,28.27
2022-08-26T02:18:30.457Z,30.30
2022-08-26T02:20:59.072Z,26.77
2022-08-26T02:23:29.983Z,25.13
2022-08-26T02:26:04.792Z,34.50
2022-08-26T02:28:37.945Z,27.40
2022-08-26T02:31:07.251Z,28.23
2022-08-26T02:33:37.019Z,30.07
2022-08-26T02:36:13.481Z,33.50
2022-08-26T02:38:45.655Z,32.27
2022-08-26T02:41:15.363Z,24.63
2022-08-26T02:43:47.194Z,28.83
2022-08-26T02:46:21.426Z,28.60
2022-08-26T02:48:57.022Z,27.70
2022-08-26T02:51:26.867Z,32.60
2022-08-26T02:53:57.036Z,29.43
2022-08-26T02:56:25.839Z,32.07
2022-08-26T02:58:56.306Z,27.53
2022-08-26T03:01:26.375Z,36.80
2022-08-26T03:04:02.911Z,37.17
2022-08-26T03:06:32.143Z,36.50
2022-08-26T03:09:02.964Z,27.80
2022-08-26T03:11:33.182Z,31.10
2022-08-26T03:14:03.542Z,31.33
2022-08-26T03:16:33.916Z,33.40
2022-08-26T03:19:03.131Z,27.87
2022-08-26T03:21:32.796Z,31.13
2022-08-26T03:24:03.064Z,34.23
2022-08-26T03:26:31.721Z,35.07
2022-08-26T03:29:18.184Z,32.40
2022-08-26T03:31:47.087Z,33.77
2022-08-26T03:34:15.805Z,37.03
2022-08-26T03:36:45.561Z,33.60
2022-08-26T03:39:16.662Z,33.73
2022-08-26T03:41:46.316Z,40.10
2022-08-26T03:44:15.578Z,42.50
2022-08-26T03:46:47.062Z,38.27
2022-08-26T03:49:17.135Z,37.53
2022-08-26T03:51:45.937Z,35.30
2022-08-26T03:54:16.072Z,37.50
2022-08-26T03:56:46.583Z,44.17
2022-08-26T03:59:15.424Z,38.27
2022-08-26T04:01:44.596Z,40.87
2022-08-26T04:04:15.623Z,35.93
2022-08-26T04:06:45.122Z,37.47
2022-08-26T04:09:17.650Z,37.80
2022-08-26T04:11:50.614Z,44.20
2022-08-26T04:14:21.453Z,39.63
2022-08-26T04:16:50.596Z,41.57
2022-08-26T04:19:20.230Z,38.67
2022-08-26T04:21:51.176Z,43.20
2022-08-26T04:24:23.274Z,37.07
2022-08-26T04:26:52.224Z,40.50
2022-08-26T04:29:24.030Z,38.70
2022-08-26T04:31:55.445Z,40.40
2022-08-26T04:34:28.530Z,44.70
2022-08-26T04:36:58.003Z,51.37
2022-08-26T04:39:29.285Z,36.63
2022-08-26T04:41:58.666Z,41.93
2022-08-26T04:44:29.774Z,36.83
2022-08-26T04:46:59.212Z,32.87
2022-08-26T04:49:28.065Z,42.87
2022-08-26T04:52:05.122Z,43.50
2022-08-26T04:54:35.476Z,41.53
2022-08-26T04:57:04.134Z,39.13
2022-08-26T04:59:38.488Z,42.40
2022-08-26T05:02:08.537Z,42.67
2022-08-26T05:04:38.265Z,34.13
2022-08-26T05:07:09.560Z,38.20
2022-08-26T05:09:40.898Z,38.53
2022-08-26T05:12:09.939Z,37.43
2022-08-26T05:14:39.423Z,41.77
2022-08-26T05:17:08.660Z,40.03
2022-08-26T05:19:38.501Z,38.23
2022-08-26T05:22:13.108Z,36.67
2022-08-26T05:24:43.648Z,39.40
2022-08-26T05:27:13.107Z,41.27
2022-08-26T05:29:42.615Z,36.77
2022-08-26T05:32:13.190Z,37.87
2022-08-26T05:34:42.953Z,36.10
2022-08-26T05:37:13.791Z,35.20
2022-08-26T05:39:51.145Z,31.63
2022-08-26T05:42:21.659Z,30.33
2022-08-26T05:44:55.969Z,33.33
2022-08-26T05:47:25.406Z,35.03
2022-08-26T05:49:55.501Z,39.87
2022-08-26T05:52:25.858Z,40.00
2022-08-26T05:54:56.780Z,34.47
2022-08-26T05:57:25.472Z,32.53
2022-08-26T05:59:54.733Z,37.63
2022-08-26T06:02:23.544Z,36.53
2022-08-26T06:04:52.184Z,33.90
2022-08-26T06:07:42.350Z,31.20
2022-08-26T06:10:31.619Z,35.97
2022-08-26T06:13:09.209Z,30.03
2022-08-26T06:15:45.752Z,35.83
2022-08-26T06:18:15.710Z,42.27
2022-08-26T06:20:57.407Z,36.70
2022-08-26T06:23:46.865Z,33.20
2022-08-26T06:26:17.765Z,33.70
2022-08-26T06:28:46.802Z,31.47
2022-08-26T06:31:16.796Z,35.20
2022-08-26T06:33:46.036Z,32.83
2022-08-26T06:36:19.526Z,33.20
2022-08-26T06:38:48.958Z,30.40
2022-08-26T06:41:21.156Z,28.87
2022-08-26T06:43:50.711Z,30.83
2022-08-26T06:46:21.729Z,27.00
2022-08-26T06:48:51.044Z,25.97
2022-08-26T06:51:23.557Z,26.17
2022-08-26T06:53:53.849Z,26.47
2022-08-26T06:56:25.858Z,26.83
2022-08-26T06:58:54.818Z,31.03
2022-08-26T07:01:26.357Z,25.47
2022-08-26T07:03:57.210Z,28.13
2022-08-26T07:06:26.428Z,28.10
2022-08-26T07:08:56.759Z,28.33
2022-08-26T07:11:27.073Z,29.17
2022-08-26T07:13:58.395Z,30.40
2022-08-26T07:16:27.884Z,27.60
2022-08-26T07:18:58.621Z,29.90
2022-08-26T07:21:27.644Z,25.10
2022-08-26T07:24:01.214Z,27.03
2022-08-26T07:26:32.616Z,33.10
2022-08-26T07:29:01.809Z,26.00
2022-08-26T07:31:39.246Z,24.10
2022-08-26T07:34:09.534Z,28.70
2022-08-26T07:36:38.408Z,25.97
2022-08-26T07:39:07.735Z,30.87
2022-08-26T07:41:37.820Z,23.13
2022-08-26T07:44:08.878Z,31.37
2022-08-26T07:46:38.762Z,24.37
2022-08-26T07:49:07.831Z,28.47
2022-08-26T07:51:37.954Z,23.53
2022-08-26T07:54:07.745Z,28.20
2022-08-26T07:56:37.581Z,25.53
2022-08-26T07:59:13.695Z,24.90
2022-08-26T08:01:45.098Z,28.63
2022-08-26T08:04:14.430Z,25.13
2022-08-26T08:06:43.940Z,26.77
2022-08-26T08:09:13.623Z,28.40
2022-08-26T08:11:43.617Z,26.03
2022-08-26T08:14:13.985Z,24.80
2022-08-26T08:16:47.045Z,21.17
2022-08-26T08:19:20.082Z,26.83
2022-08-26T08:21:50.208Z,21.37
2022-08-26T08:24:20.363Z,23.90
2022-08-26T08:26:50.880Z,21.70
2022-08-26T08:29:19.541Z,25.97
2022-08-26T08:31:58.293Z,23.17
2022-08-26T08:34:29.259Z,27.00
2022-08-26T08:36:58.750Z,22.43
2022-08-26T08:39:28.603Z,27.37
2022-08-26T08:42:42.321Z,21.50
2022-08-26T08:45:16.886Z,20.50
2022-08-26T08:47:50.512Z,22.50
2022-08-26T08:50:25.941Z,20.27
2022-08-26T08:53:00.471Z,22.37
2022-08-26T08:55:34.691Z,26.40
2022-08-26T08:58:08.087Z,22.20
2022-08-26T09:00:44.289Z,21.57
2022-08-26T09:03:33.194Z,18.83
2022-08-26T09:06:02.632Z,20.10
2022-08-26T09:08:35.834Z,16.83
2022-08-26T09:11:05.413Z,30.43
2022-08-26T09:13:35.816Z,25.53
2022-08-26T09:16:11.503Z,18.10
2022-08-26T09:18:51.183Z,22.23
2022-08-26T09:21:21.961Z,18.30
2022-08-26T09:23:52.920Z,20.53
2022-08-26T09:26:29.195Z,24.67
2022-08-26T09:28:59.617Z,22.03
2022-08-26T09:31:31.781Z,26.30
2022-08-26T09:34:17.516Z,18.90
2022-08-26T09:36:47.453Z,23.00
2022-08-26T09:39:35.095Z,19.23
2022-08-26T09:42:09.995Z,20.27
2022-08-26T09:44:54.662Z,17.27
2022-08-26T09:47:30.219Z,24.90
2022-08-26T09:50:09.673Z,27.67
2022-08-26T09:52:40.518Z,24.07
2022-08-26T09:55:16.221Z,20.20
2022-08-26T09:57:51.121Z,19.90
2022-08-26T10:00:27.265Z,22.90
2022-08-26T10:02:58.951Z,18.80
2022-08-26T10:05:38.579Z,21.60
2022-08-26T10:08:26.703Z,34.07
2022-08-26T10:10:57.682Z,22.23
2022-08-26T10:13:33.671Z,17.27
2022-08-26T10:16:10.697Z,20.10
2022-08-26T10:18:44.589Z,24.43
2022-08-26T10:21:18.051Z,24.00
2022-08-26T10:23:49.532Z,19.53
2022-08-26T10:26:24.146Z,25.20
2022-08-26T10:28:58.009Z,19.03
2022-08-26T10:31:30.450Z,24.63
2022-08-26T10:34:10.355Z,22.10
2022-08-26T10:37:15.647Z,26.37
2022-08-26T10:39:43.149Z,35.83
2022-08-26T10:42:18.100Z,23.73
2022-08-26T10:44:50.948Z,22.30
2022-08-26T10:47:22.197Z,20.90
2022-08-26T10:50:00.000Z,21.57
2022-08-26T10:52:39.530Z,18.87
2022-08-26T10:55:13.946Z,18.67
2022-08-26T10:57:47.851Z,19.70
2022-08-26T11:00:36.519Z,24.70
2022-08-26T11:03:09.466Z,26.13
2022-08-26T11:06:17.697Z,20.37
2022-08-26T11:08:50.827Z,21.53
2022-08-26T11:11:46.720Z,26.03
2022-08-26T11:14:53.188Z,16.50
2022-08-26T11:17:56.951Z,22.60
2022-08-26T11:20:42.269Z,25.97
2022-08-26T11:23:50.420Z,17.27
2022-08-26T11:26:36.001Z,25.27
2022-08-26T11:29:13.525Z,21.83
2022-08-26T11:31:57.508Z,21.03
2022-08-26T11:34:56.699Z,19.43
2022-08-26T11:37:32.323Z,18.07
2022-08-26T11:40:05.026Z,30.27
2022-08-26T11:42:38.131Z,22.77
2022-08-26T11:45:19.400Z,19.07
2022-08-26T11:47:49.376Z,26.80
2022-08-26T11:50:23.345Z,22.33
2022-08-26T11:52:53.460Z,24.07
2022-08-26T11:55:24.227Z,21.77
2022-08-26T11:57:56.182Z,22.50
2022-08-26T12:00:27.188Z,24.53
2022-08-26T12:02:56.346Z,22.10
2022-08-26T12:05:31.181Z,26.23
2022-08-26T12:08:04.906Z,19.40
2022-08-26T12:10:37.392Z,24.03
2022-08-26T12:13:07.893Z,18.63
2022-08-26T12:15:37.324Z,20.33
2022-08-26T12:18:20.611Z,24.47
2022-08-26T12:20:59.803Z,26.17
2022-08-26T12:23:40.095Z,14.00
2022-08-26T12:26:13.143Z,18.57
2022-08-26T12:28:46.530Z,24.63
2022-08-26T12:31:22.758Z,21.70
2022-08-26T12:33:52.608Z,22.60
2022-08-26T12:36:25.629Z,20.53
2022-08-26T12:38:57.697Z,21.30
2022-08-26T12:41:47.621Z,21.37
2022-08-26T12:44:34.720Z,26.10
2022-08-26T12:47:06.582Z,22.83
2022-08-26T12:49:35.219Z,23.40
2022-08-26T12:52:03.937Z,22.70
2022-08-26T12:54:46.997Z,23.90
2022-08-26T12:57:17.287Z,22.53
2022-08-26T12:59:46.052Z,22.17
2022-08-26T13:02:35.864Z,20.00
2022-08-26T13:05:05.546Z,22.20
2022-08-26T13:07:34.583Z,22.57
2022-08-26T13:10:03.395Z,21.03
2022-08-26T13:12:37.422Z,10.20
2022-08-26T13:15:07.802Z,16.27
2022-08-26T13:17:36.478Z,22.60
2022-08-26T13:20:06.436Z,13.10
2022-08-26T13:22:35.250Z,14.17
2022-08-26T13:25:03.692Z,8.53
2022-08-26T13:27:33.499Z,10.83
2022-08-26T13:30:02.339Z,12.90
2022-08-26T13:32:31.910Z,8.30
2022-08-26T13:35:00.441Z,10.50
2022-08-26T13:37:35.690Z,7.13
2022-08-26T13:40:06.912Z,8.30
2022-08-26T13:42:37.150Z,10.30
2022-08-26T13:45:18.838Z,11.10
2022-08-26T13:47:47.776Z,29.43
2022-08-26T13:50:16.683Z,21.60
2022-08-26T13:52:45.477Z,24.43
2022-08-26T13:55:14.860Z,23.93
2022-08-26T13:57:44.920Z,14.10
2022-08-26T14:00:15.130Z,29.17
2022-08-26T14:02:44.064Z,35.67
2022-08-26T14:05:13.435Z,23.03
2022-08-26T14:07:42.369Z,28.60
2022-08-26T14:10:12.113Z,25.43
2022-08-26T14:12:41.395Z,22.47
2022-08-26T14:15:16.292Z,25.33
2022-08-26T14:18:02.089Z,22.37
2022-08-26T14:20:31.932Z,18.47
2022-08-26T14:23:20.836Z,15.10
2022-08-26T14:25:49.815Z,16.33
2022-08-26T14:28:19.112Z,14.03
2022-08-26T14:30:52.641Z,13.03
2022-08-26T14:33:24.507Z,15.60
2022-08-26T14:35:53.552Z,19.30
2022-08-26T14:38:22.077Z,20.07
2022-08-26T14:40:50.902Z,16.83
2022-08-26T14:43:19.808Z,12.67
2022-08-26T14:45:49.677Z,11.37
2022-08-26T14:48:19.326Z,13.27
2022-08-26T14:50:47.998Z,15.33
2022-08-26T14:53:34.408Z,10.83
2022-08-26T14:56:03.868Z,14.97
2022-08-26T14:58:34.949Z,21.83
2022-08-26T15:01:06.970Z,19.30
2022-08-26T15:03:35.683Z,13.83
2022-08-26T15:06:04.258Z,17.33
2022-08-26T15:08:36.511Z,17.87
2022-08-26T15:11:05.391Z,17.83
2022-08-26T15:13:34.147Z,21.73
2022-08-26T15:16:04.743Z,20.20
2022-08-26T15:18:33.284Z,17.60
2022-08-26T15:21:03.945Z,22.13
2022-08-26T15:23:32.866Z,19.87
2022-08-26T15:26:01.732Z,26.07
2022-08-26T15:28:30.794Z,28.87
2022-08-26T15:31:00.647Z,23.63
2022-08-26T15:33:30.844Z,21.03
2022-08-26T15:36:00.723Z,23.50
2022-08-26T15:38:31.776Z,25.67
2022-08-26T15:41:03.168Z,29.27
2022-08-26T15:43:32.244Z,31.97
2022-08-26T15:46:01.211Z,23.63
2022-08-26T15:48:31.243Z,22.20
2022-08-26T15:51:03.093Z,20.70
2022-08-26T15:53:33.867Z,23.10
2022-08-26T15:56:03.646Z,22.43
2022-08-26T15:58:32.337Z,23.90
2022-08-26T16:01:01.924Z,21.93
2022-08-26T16:03:32.294Z,28.97
2022-08-26T16:06:01.264Z,26.90
2022-08-26T16:08:30.392Z,28.87
2022-08-26T16:11:06.143Z,29.03
2022-08-26T16:13:39.698Z,29.17
2022-08-26T16:16:09.931Z,28.70
2022-08-26T16:18:41.145Z,40.23
2022-08-26T16:21:13.525Z,33.57
2022-08-26T16:23:45.344Z,31.37
2022-08-26T16:26:15.809Z,35.67
2022-08-26T16:28:44.612Z,31.20
2022-08-26T16:31:13.899Z,32.87
2022-08-26T16:33:45.078Z,29.70
2022-08-26T16:36:14.455Z,27.13
2022-08-26T16:38:43.510Z,22.43
2022-08-26T16:41:12.108Z,26.90
2022-08-26T16:43:40.763Z,27.23
2022-08-26T16:46:11.445Z,32.20
2022-08-26T16:48:40.131Z,32.43
2022-08-26T16:51:16.400Z,34.30
2022-08-26T16:53:45.727Z,31.77
2022-08-26T16:56:14.492Z,29.50
2022-08-26T16:58:43.526Z,29.33
2022-08-26T17:01:12.444Z,29.60
2022-08-26T17:03:41.011Z,34.43
2022-08-26T17:06:10.788Z,28.60
2022-08-26T17:08:42.272Z,30.77
2022-08-26T17:11:11.363Z,29.10
2022-08-26T17:13:39.967Z,30.93
2022-08-26T17:16:11.232Z,31.13
2022-08-26T17:18:40.019Z,31.33
2022-08-26T17:21:11.188Z,31.80
2022-08-26T17:23:42.560Z,24.90
2022-08-26T17:26:12.156Z,28.83
2022-08-26T17:28:41.484Z,34.20
2022-08-26T17:31:11.646Z,28.03
2022-08-26T17:33:40.622Z,28.17
2022-08-26T17:36:10.058Z,21.40
2022-08-26T17:38:40.849Z,29.40
2022-08-26T17:41:10.193Z,21.77
2022-08-26T17:43:39.209Z,27.40
2022-08-26T17:46:09.922Z,26.97
2022-08-26T17:48:39.877Z,29.40
2022-08-26T17:51:10.129Z,30.73
2022-08-26T17:53:41.310Z,33.43
2022-08-26T17:56:10.851Z,31.83
2022-08-26T17:58:39.743Z,35.60
2022-08-26T18:01:08.579Z,34.10
2022-08-26T18:03:37.308Z,28.97
2022-08-26T18:06:09.977Z,34.63
2022-08-26T18:08:40.499Z,34.30
2022-08-26T18:11:10.499Z,41.27
2022-08-26T18:13:47.043Z,33.23
2022-08-26T18:16:17.680Z,28.20
2022-08-26T18:18:47.648Z,34.33
2022-08-26T18:21:18.192Z,30.97
2022-08-26T18:23:48.611Z,31.57
2022-08-26T18:26:18.917Z,30.80
2022-08-26T18:29:07.310Z,36.17
2022-08-26T18:31:36.263Z,33.83
2022-08-26T18:34:04.885Z,31.87
2022-08-26T18:36:35.745Z,35.43
2022-08-26T18:39:07.097Z,39.37
2022-08-26T18:41:41.579Z,34.63
2022-08-26T18:44:13.674Z,34.80
2022-08-26T18:46:43.066Z,33.50
2022-08-26T18:49:12.617Z,38.53
2022-08-26T18:51:42.451Z,40.37
2022-08-26T18:54:13.271Z,37.27
2022-08-26T18:56:43.742Z,41.70
2022-08-26T18:59:14.005Z,42.33
2022-08-26T19:01:43.452Z,42.03
2022-08-26T19:04:15.401Z,47.50
2022-08-26T19:06:46.575Z,41.70
2022-08-26T19:09:17.867Z,42.47
2022-08-26T19:11:49.781Z,39.23
2022-08-26T19:14:19.444Z,37.73
2022-08-26T19:16:50.076Z,41.30
2022-08-26T19:19:19.488Z,40.87
2022-08-26T19:21:48.857Z,46.47
2022-08-26T19:24:19.958Z,44.10
2022-08-26T19:26:51.370Z,47.37
2022-08-26T19:29:27.425Z,40.73
2022-08-26T19:31:56.498Z,44.27
2022-08-26T19:34:25.035Z,41.67
2022-08-26T19:36:54.684Z,42.37
2022-08-26T19:39:25.237Z,39.10
2022-08-26T19:41:54.446Z,50.90
2022-08-26T19:44:41.989Z,46.60
2022-08-26T19:47:11.893Z,44.73
2022-08-26T19:49:41.186Z,47.30
2022-08-26T19:52:11.091Z,50.93
2022-08-26T19:54:41.791Z,55.03
2022-08-26T19:57:11.641Z,47.37
2022-08-26T19:59:40.530Z,46.43
2022-08-26T20:02:11.294Z,50.30
2022-08-26T20:04:40.335Z,49.93
2022-08-26T20:07:12.030Z,38.77
2022-08-26T20:09:42.929Z,42.67
2022-08-26T20:12:11.688Z,44.83
2022-08-26T20:14:40.599Z,43.00
2022-08-26T20:17:09.481Z,47.40
2022-08-26T20:19:56.182Z,45.27
2022-08-26T20:22:25.705Z,40.97
2022-08-26T20:24:55.750Z,45.67
2022-08-26T20:27:38.069Z,45.47
2022-08-26T20:30:09.449Z,42.10
2022-08-26T20:32:39.445Z,40.93
2022-08-26T20:35:11.692Z,40.43
2022-08-26T20:37:40.555Z,39.07
2022-08-26T20:40:13.665Z,39.03
2022-08-26T20:42:42.657Z,40.60
2022-08-26T20:45:12.016Z,44.53
2022-08-26T20:47:43.762Z,46.93
2022-08-26T20:50:12.439Z,41.17
2022-08-26T20:52:41.030Z,40.00
2022-08-26T20:55:11.826Z,42.80
2022-08-26T20:57:43.243Z,40.20
2022-08-26T21:00:14.151Z,38.77
2022-08-26T21:02:44.020Z,42.43
2022-08-26T21:05:12.618Z,38.93
2022-08-26T21:07:41.054Z,43.50
2022-08-26T21:10:12.240Z,39.00
2022-08-26T21:12:40.704Z,44.93
2022-08-26T21:15:10.675Z,46.70
2022-08-26T21:17:39.292Z,37.13
2022-08-26T21:20:09.107Z,35.13
2022-08-26T21:22:37.902Z,47.33
2022-08-26T21:25:07.467Z,43.03
2022-08-26T21:27:39.025Z,48.50
2022-08-26T21:30:09.123Z,46.90
2022-08-26T21:32:37.897Z,41.57
2022-08-26T21:35:07.163Z,39.03
2022-08-26T21:37:36.044Z,41.07
2022-08-26T21:40:06.027Z,40.07
2022-08-26T21:42:35.957Z,41.70
2022-08-26T21:45:08.010Z,34.67
2022-08-26T21:47:36.706Z,39.97
2022-08-26T21:50:06.445Z,41.30
2022-08-26T21:52:35.305Z,42.67
2022-08-26T21:55:04.937Z,39.37
2022-08-26T21:57:38.145Z,40.30
2022-08-26T22:00:10.849Z,39.63
2022-08-26T22:02:39.763Z,36.40
2022-08-26T22:05:09.072Z,36.37
2022-08-26T22:07:38.140Z,36.97
2022-08-26T22:10:08.414Z,42.63
2022-08-26T22:12:38.541Z,36.77
2022-08-26T22:15:10.529Z,41.23
2022-08-26T22:17:39.476Z,35.77
2022-08-26T22:20:16.651Z,33.77
2022-08-26T22:22:45.948Z,40.73
2022-08-26T22:25:15.042Z,43.67
2022-08-26T22:27:43.601Z,37.93
2022-08-26T22:30:14.681Z,36.93
2022-08-26T22:32:44.107Z,40.77
2022-08-26T22:35:28.298Z,34.90
2022-08-26T22:37:58.949Z,38.50
2022-08-26T22:40:27.594Z,39.77
2022-08-26T22:42:58.030Z,35.57
2022-08-26T22:45:31.428Z,42.40
2022-08-26T22:48:01.554Z,36.90
2022-08-26T22:50:30.634Z,34.07
2022-08-26T22:52:59.644Z,33.50
2022-08-26T22:55:29.017Z,34.77
2022-08-26T22:57:58.130Z,32.97
2022-08-26T23:00:32.193Z,33.00
2022-08-26T23:03:04.379Z,31.47
2022-08-26T23:05:33.294Z,25.27
2022-08-26T23:08:03.151Z,31.20
2022-08-26T23:10:32.766Z,35.83
2022-08-26T23:13:03.799Z,38.40
2022-08-26T23:15:33.624Z,27.83
2022-08-26T23:18:03.759Z,30.80
2022-08-26T23:20:33.775Z,38.87
2022-08-26T23:23:03.321Z,28.90
2022-08-26T23:25:33.493Z,29.67
2022-08-26T23:28:03.452Z,38.13
2022-08-26T23:30:33.126Z,29.77
2022-08-26T23:33:03.080Z,26.63
2022-08-26T23:35:31.254Z,30.83
2022-08-26T23:38:01.075Z,31.90
2022-08-26T23:40:33.171Z,28.03
2022-08-26T23:43:03.593Z,26.33
2022-08-26T23:45:33.473Z,33.97
2022-08-26T23:48:03.498Z,30.00
2022-08-26T23:50:46.770Z,21.47
2022-08-26T23:53:19.590Z,23.90
2022-08-26T23:55:49.703Z,28.53
2022-08-26T23:58:19.198Z,28.23
